Time;durP1;ratioP1;P1;durP2;ratioP2;P2;SDS_P1;SDS_P2;PMS_P1;PMS_P2;Temp;Humidity;BMP_temperature;BMP_pressure;BME280_temperature;BME280_humidity;BME280_pressure;Samples;Min_cycle;Max_cycle;Signal;HPM_P1;HPM_P2
2021/01/27 00:00:39;;;;;;;8.85;7.32;;;3.20;99.90;;;;;;5007287;28;20190;-78
2021/01/27 00:03:10;;;;;;;8.75;6.97;;;3.20;99.90;;;;;;4997358;28;20170;-79
2021/01/27 00:05:42;;;;;;;10.40;6.65;;;2.70;99.90;;;;;;5006660;28;20248;-78
2021/01/27 00:08:10;;;;;;;11.77;7.43;;;3.10;99.90;;;;;;5016629;28;20217;-78
2021/01/27 00:10:37;;;;;;;8.98;6.85;;;2.60;99.90;;;;;;4998975;28;20174;-78
2021/01/27 00:13:05;;;;;;;8.50;6.15;;;3.20;99.90;;;;;;5002291;28;20186;-78
2021/01/27 00:15:39;;;;;;;15.05;7.07;;;3.00;99.90;;;;;;5010612;28;20225;-78
2021/01/27 00:18:08;;;;;;;10.07;7.05;;;3.00;99.90;;;;;;5009658;28;20242;-78
2021/01/27 00:20:34;;;;;;;8.90;6.35;;;3.10;99.90;;;;;;4997034;28;20178;-79
2021/01/27 00:23:03;;;;;;;11.52;7.95;;;3.00;99.90;;;;;;5004515;28;20190;-78
2021/01/27 00:25:41;;;;;;;9.88;6.78;;;3.00;99.90;;;;;;5019115;28;20254;-78
2021/01/27 00:28:09;;;;;;;8.73;6.65;;;3.10;99.90;;;;;;5020049;28;20206;-79
2021/01/27 00:30:37;;;;;;;13.10;7.22;;;2.60;99.90;;;;;;4999257;28;20190;-78
2021/01/27 00:33:09;;;;;;;9.63;6.53;;;2.90;99.90;;;;;;5015931;28;20185;-78
2021/01/27 00:35:40;;;;;;;8.57;6.72;;;3.00;99.90;;;;;;5015746;28;20185;-78
2021/01/27 00:38:19;;;;;;;9.13;6.30;;;2.50;99.90;;;;;;5008914;28;20181;-78
2021/01/27 00:40:48;;;;;;;11.98;7.93;;;2.50;99.90;;;;;;5015537;28;20632;-78
2021/01/27 00:43:15;;;;;;;14.35;7.78;;;3.10;99.90;;;;;;5015374;28;20216;-78
2021/01/27 00:45:41;;;;;;;8.98;7.57;;;3.00;99.90;;;;;;5021683;28;20202;-78
2021/01/27 00:48:14;;;;;;;9.27;7.20;;;3.10;99.90;;;;;;5009673;28;20197;-78
2021/01/27 00:50:40;;;;;;;9.02;8.13;;;2.50;99.90;;;;;;5014263;28;20193;-78
2021/01/27 00:53:07;;;;;;;11.77;7.80;;;2.40;99.90;;;;;;5016333;28;20174;-78
2021/01/27 00:55:42;;;;;;;9.75;7.82;;;2.70;99.90;;;;;;5032272;28;20188;-78
2021/01/27 00:58:09;;;;;;;13.05;8.80;;;2.80;99.90;;;;;;5007384;28;20652;-78
2021/01/27 01:00:40;;;;;;;10.85;8.40;;;2.40;99.90;;;;;;5011477;28;20208;-78
2021/01/27 01:03:16;;;;;;;9.73;8.23;;;2.40;99.90;;;;;;5015635;28;20196;-78
2021/01/27 01:05:44;;;;;;;8.85;7.55;;;2.70;99.90;;;;;;5009488;28;20190;-78
2021/01/27 01:08:13;;;;;;;11.18;7.90;;;2.80;99.90;;;;;;5000288;28;20212;-78
2021/01/27 01:10:47;;;;;;;11.57;8.13;;;2.80;99.90;;;;;;5031304;28;20208;-78
2021/01/27 01:13:20;;;;;;;10.90;8.45;;;2.50;99.90;;;;;;5016812;28;20225;-78
2021/01/27 01:15:46;;;;;;;11.05;8.32;;;2.90;99.90;;;;;;5015178;28;20170;-78
2021/01/27 01:18:15;;;;;;;12.38;8.38;;;2.70;99.90;;;;;;5011253;28;20637;-78
2021/01/27 01:20:41;;;;;;;11.23;8.05;;;2.70;99.90;;;;;;5015741;28;20204;-78
2021/01/27 01:23:07;;;;;;;11.63;8.38;;;2.70;99.90;;;;;;4997538;28;20570;-78
2021/01/27 01:25:36;;;;;;;13.15;8.43;;;2.50;99.90;;;;;;5015516;28;20210;-78
2021/01/27 01:28:03;;;;;;;11.10;8.20;;;2.60;99.90;;;;;;5013706;28;20244;-79
2021/01/27 01:30:40;;;;;;;10.23;8.40;;;2.70;99.90;;;;;;5012611;28;20536;-78
2021/01/27 01:33:11;;;;;;;13.95;8.80;;;2.10;99.90;;;;;;5012335;28;20819;-78
2021/01/27 01:35:37;;;;;;;10.20;8.43;;;2.70;99.90;;;;;;5014224;28;20521;-78
2021/01/27 01:38:06;;;;;;;10.40;7.68;;;2.60;99.90;;;;;;5008993;28;20183;-78
2021/01/27 01:40:54;;;;;;;12.68;8.90;;;2.40;99.90;;;;;;5009301;28;20212;-78
2021/01/27 01:43:26;;;;;;;13.38;9.23;;;2.60;99.90;;;;;;5023587;28;20220;-78
2021/01/27 01:46:00;;;;;;;11.27;8.00;;;2.40;99.90;;;;;;5013750;28;20183;-78
2021/01/27 01:48:40;;;;;;;9.23;7.93;;;2.80;99.90;;;;;;4996060;28;20213;-78
2021/01/27 01:51:21;;;;;;;10.70;7.38;;;2.90;99.90;;;;;;5015858;28;20186;-79
2021/01/27 01:53:49;;;;;;;10.43;7.20;;;2.90;99.90;;;;;;5007217;28;20189;-78
2021/01/27 01:56:19;;;;;;;7.82;6.38;;;2.70;99.90;;;;;;4997332;28;20182;-78
2021/01/27 01:58:52;;;;;;;10.35;6.47;;;2.80;99.90;;;;;;5011785;28;20240;-78
2021/01/27 02:01:22;;;;;;;11.30;6.75;;;2.50;99.90;;;;;;4997328;28;20197;-78
2021/01/27 02:03:50;;;;;;;8.25;5.90;;;2.40;99.90;;;;;;5000673;28;20182;-79
2021/01/27 02:06:16;;;;;;;9.18;6.15;;;2.50;99.90;;;;;;4995314;28;20273;-78
2021/01/27 02:08:54;;;;;;;6.10;5.10;;;2.90;99.90;;;;;;5006749;28;20210;-78
2021/01/27 02:11:58;;;;;;;6.75;5.00;;;3.00;99.90;;;;;;5013057;28;20657;-78
2021/01/27 02:15:01;;;;;;;5.13;4.63;;;3.10;99.90;;;;;;5010488;28;20271;-78
2021/01/27 02:17:55;;;;;;;6.75;5.97;;;3.20;99.90;;;;;;5011748;28;20221;-78
2021/01/27 02:21:01;;;;;;;4.57;4.05;;;3.20;99.90;;;;;;5014198;28;20181;-78
2021/01/27 02:24:18;;;;;;;5.07;4.63;;;2.90;99.90;;;;;;5013488;28;20193;-78
2021/01/27 02:27:02;;;;;;;4.63;4.22;;;3.10;99.90;;;;;;4994988;28;20191;-78
2021/01/27 02:30:04;;;;;;;4.85;4.45;;;3.20;99.90;;;;;;4989494;28;20220;-79
2021/01/27 02:32:46;;;;;;;5.07;3.80;;;3.00;99.90;;;;;;5011849;28;20198;-79
2021/01/27 02:35:27;;;;;;;6.15;4.40;;;2.90;99.90;;;;;;5004000;28;20198;-78
2021/01/27 02:38:06;;;;;;;5.05;3.97;;;2.90;99.90;;;;;;5011044;28;20167;-78
2021/01/27 02:40:43;;;;;;;4.70;4.00;;;3.10;99.90;;;;;;5011970;28;20174;-78
2021/01/27 02:43:21;;;;;;;4.18;3.80;;;3.00;99.90;;;;;;5036717;28;20209;-78
2021/01/27 02:45:58;;;;;;;5.55;3.28;;;3.00;99.90;;;;;;4995853;28;20616;-79
2021/01/27 02:48:49;;;;;;;3.63;3.30;;;3.00;99.90;;;;;;5002226;28;20555;-78
2021/01/27 02:51:23;;;;;;;4.07;3.72;;;3.00;99.90;;;;;;5006473;28;20179;-78
2021/01/27 02:54:02;;;;;;;4.65;4.22;;;3.10;99.90;;;;;;5015185;28;20181;-78
2021/01/27 02:56:52;;;;;;;4.00;3.70;;;3.00;99.90;;;;;;5015914;28;20181;-79
2021/01/27 02:59:44;;;;;;;4.00;3.60;;;2.90;99.90;;;;;;5012781;28;20197;-78
2021/01/27 03:02:24;;;;;;;5.70;4.63;;;3.00;99.90;;;;;;5011010;28;20189;-78
2021/01/27 03:05:00;;;;;;;5.05;3.83;;;3.10;99.90;;;;;;4994601;28;20394;-78
2021/01/27 03:07:33;;;;;;;3.78;3.47;;;2.50;99.90;;;;;;5003476;28;20178;-78
2021/01/27 03:10:45;;;;;;;4.70;3.75;;;3.00;99.90;;;;;;5010154;28;20262;-78
2021/01/27 03:13:14;;;;;;;3.70;3.40;;;3.30;99.90;;;;;;4981057;28;20202;-78
2021/01/27 03:15:40;;;;;;;3.38;3.08;;;3.40;99.90;;;;;;4986853;28;20190;-78
2021/01/27 03:18:13;;;;;;;3.55;3.25;;;3.20;99.90;;;;;;5010123;28;20238;-78
2021/01/27 03:20:41;;;;;;;4.72;3.15;;;3.50;99.90;;;;;;5010800;28;20546;-79
2021/01/27 03:23:15;;;;;;;4.10;3.70;;;3.20;99.90;;;;;;5005204;28;20186;-79
2021/01/27 03:25:52;;;;;;;6.20;3.80;;;3.20;99.90;;;;;;5001147;28;20182;-79
2021/01/27 03:28:34;;;;;;;4.65;3.00;;;3.30;99.90;;;;;;5015771;28;20263;-78
2021/01/27 03:31:02;;;;;;;3.05;2.85;;;3.20;99.90;;;;;;5016309;28;20177;-79
2021/01/27 03:33:52;;;;;;;5.15;3.17;;;3.30;99.90;;;;;;5007933;28;20181;-78
2021/01/27 03:36:25;;;;;;;3.35;2.70;;;3.00;99.90;;;;;;5013307;28;20228;-78
2021/01/27 03:38:57;;;;;;;4.90;3.45;;;3.00;99.90;;;;;;5017131;28;20178;-78
2021/01/27 03:41:40;;;;;;;3.80;2.72;;;2.90;99.90;;;;;;5013787;28;20936;-78
2021/01/27 03:44:23;;;;;;;4.45;2.70;;;2.90;99.90;;;;;;5014324;28;20209;-78
2021/01/27 03:46:57;;;;;;;3.03;2.72;;;3.20;99.90;;;;;;5015368;28;20259;-78
2021/01/27 03:49:37;;;;;;;2.85;2.55;;;3.10;99.90;;;;;;5016855;28;20719;-78
2021/01/27 03:52:16;;;;;;;3.15;2.90;;;2.60;99.90;;;;;;5016566;28;20185;-79
2021/01/27 03:55:00;;;;;;;3.55;3.10;;;3.20;99.90;;;;;;4997781;28;20189;-78
2021/01/27 03:57:40;;;;;;;4.55;2.95;;;3.00;99.90;;;;;;5013861;28;20201;-79
2021/01/27 04:00:11;;;;;;;3.70;2.90;;;3.00;99.90;;;;;;4998952;28;20182;-79
2021/01/27 04:02:40;;;;;;;4.45;3.50;;;3.10;99.90;;;;;;5001702;28;20179;-78
2021/01/27 04:05:12;;;;;;;4.88;3.20;;;3.20;99.90;;;;;;5014711;28;20193;-77
2021/01/27 04:07:38;;;;;;;2.90;2.70;;;3.10;99.90;;;;;;5014449;28;20177;-79
2021/01/27 04:10:05;;;;;;;4.37;3.00;;;3.00;99.90;;;;;;4999305;28;20185;-78
2021/01/27 04:12:35;;;;;;;3.42;2.70;;;3.30;99.90;;;;;;5016002;28;20445;-78
2021/01/27 04:15:01;;;;;;;3.30;3.00;;;2.80;99.90;;;;;;5036002;28;20197;-78
2021/01/27 04:17:29;;;;;;;4.10;3.70;;;3.30;99.90;;;;;;5018562;28;20720;-78
2021/01/27 04:19:58;;;;;;;3.30;3.00;;;3.50;99.90;;;;;;5016692;28;20444;-78
2021/01/27 04:22:26;;;;;;;3.63;2.63;;;3.50;99.90;;;;;;5014982;28;20669;-78
2021/01/27 04:24:54;;;;;;;3.63;2.80;;;3.30;99.90;;;;;;4997703;28;20182;-78
2021/01/27 04:27:23;;;;;;;4.35;3.33;;;3.30;99.90;;;;;;5002220;28;20662;-78
2021/01/27 04:29:53;;;;;;;3.50;3.20;;;3.20;99.90;;;;;;5021803;28;20204;-78
2021/01/27 04:32:19;;;;;;;5.18;3.65;;;3.40;99.90;;;;;;5012826;28;20259;-78
2021/01/27 04:34:45;;;;;;;7.70;3.33;;;3.30;99.90;;;;;;5016187;28;20717;-78
2021/01/27 04:37:11;;;;;;;3.70;3.30;;;3.20;99.90;;;;;;5005485;28;20430;-78
2021/01/27 04:39:42;;;;;;;4.10;3.20;;;3.30;99.90;;;;;;5013327;28;20465;-78
2021/01/27 04:42:13;;;;;;;4.50;3.55;;;3.20;99.90;;;;;;5011527;28;20904;-78
2021/01/27 04:44:39;;;;;;;6.57;4.05;;;2.80;99.90;;;;;;5015578;28;20201;-78
2021/01/27 04:47:16;;;;;;;3.65;3.35;;;3.40;99.90;;;;;;5001817;28;20513;-78
2021/01/27 04:49:51;;;;;;;5.53;3.67;;;3.40;99.90;;;;;;4996848;28;20234;-78
2021/01/27 04:52:32;;;;;;;3.75;3.45;;;3.10;99.90;;;;;;5007005;28;20221;-78
2021/01/27 04:55:06;;;;;;;5.30;3.55;;;3.10;99.90;;;;;;4996563;28;20626;-78
2021/01/27 04:57:59;;;;;;;4.55;3.85;;;3.10;99.90;;;;;;5013925;28;20189;-79
2021/01/27 05:00:57;;;;;;;6.18;3.80;;;3.10;99.90;;;;;;5012167;28;20630;-79
2021/01/27 05:03:41;;;;;;;5.30;4.18;;;3.20;99.90;;;;;;5000958;28;20293;-78
2021/01/27 05:06:13;;;;;;;4.65;3.50;;;3.10;99.90;;;;;;5005308;28;20204;-78
2021/01/27 05:08:46;;;;;;;6.55;4.93;;;3.10;99.90;;;;;;5008105;28;20229;-78
2021/01/27 05:11:17;;;;;;;4.95;4.30;;;3.20;99.90;;;;;;5001719;28;20193;-79
2021/01/27 05:13:51;;;;;;;4.57;4.18;;;3.30;99.90;;;;;;5023981;28;20216;-78
2021/01/27 05:16:21;;;;;;;8.13;4.55;;;3.10;99.90;;;;;;5024235;28;20184;-78
2021/01/27 05:18:54;;;;;;;7.50;4.82;;;2.70;99.90;;;;;;5012138;28;20226;-79
2021/01/27 05:21:24;;;;;;;5.82;5.18;;;3.20;99.90;;;;;;5006753;28;20281;-78
2021/01/27 05:23:57;;;;;;;8.05;6.20;;;2.70;99.90;;;;;;5011643;28;20182;-78
2021/01/27 05:26:31;;;;;;;6.43;5.65;;;3.30;99.90;;;;;;4994749;28;20187;-78
2021/01/27 05:29:02;;;;;;;6.57;4.53;;;2.70;99.90;;;;;;5004701;28;20201;-78
2021/01/27 05:32:02;;;;;;;6.18;4.75;;;2.60;99.90;;;;;;5004380;28;20212;-79
2021/01/27 05:34:35;;;;;;;8.93;5.05;;;3.00;99.90;;;;;;5012146;28;20200;-78
2021/01/27 05:37:05;;;;;;;6.10;5.10;;;3.10;99.90;;;;;;5014674;28;20182;-78
2021/01/27 05:39:32;;;;;;;6.30;5.20;;;2.90;99.90;;;;;;5015049;28;20186;-78
2021/01/27 05:42:17;;;;;;;5.20;4.70;;;3.10;99.90;;;;;;5012110;28;20185;-78
2021/01/27 05:44:43;;;;;;;7.07;4.35;;;3.10;99.90;;;;;;5010039;28;20198;-78
2021/01/27 05:47:37;;;;;;;4.85;4.45;;;3.20;99.90;;;;;;5014294;28;20443;-78
2021/01/27 05:50:30;;;;;;;5.20;4.32;;;3.00;99.90;;;;;;5007127;28;20199;-78
2021/01/27 05:53:15;;;;;;;4.80;4.30;;;3.00;99.90;;;;;;5004287;28;20178;-78
2021/01/27 05:56:12;;;;;;;9.15;4.65;;;2.80;99.90;;;;;;5017706;28;20170;-78
2021/01/27 05:59:03;;;;;;;6.78;3.75;;;3.10;99.90;;;;;;5002657;28;20187;-78
2021/01/27 06:01:39;;;;;;;4.25;3.70;;;2.90;99.90;;;;;;4993250;28;20245;-77
2021/01/27 06:04:11;;;;;;;4.28;3.88;;;3.00;99.90;;;;;;5008799;28;20267;-78
2021/01/27 06:06:51;;;;;;;4.65;4.25;;;3.00;99.90;;;;;;5006899;28;20262;-78
2021/01/27 06:09:42;;;;;;;7.65;3.83;;;2.90;99.90;;;;;;5013521;28;20506;-78
2021/01/27 06:12:13;;;;;;;4.95;4.00;;;3.10;99.90;;;;;;5014689;28;20674;-78
2021/01/27 06:14:43;;;;;;;5.55;3.90;;;3.10;99.90;;;;;;5012119;28;20676;-78
2021/01/27 06:17:33;;;;;;;5.03;4.00;;;2.90;99.90;;;;;;5013591;28;20209;-78
2021/01/27 06:20:14;;;;;;;4.25;3.85;;;2.90;99.90;;;;;;5004844;28;20675;-78
2021/01/27 06:23:00;;;;;;;5.38;4.32;;;2.80;99.90;;;;;;5028441;28;20213;-79
2021/01/27 06:25:47;;;;;;;5.70;4.15;;;2.70;99.90;;;;;;5010440;28;20181;-78
2021/01/27 06:28:25;;;;;;;5.15;4.13;;;2.80;99.90;;;;;;5010517;28;20221;-78
2021/01/27 06:31:12;;;;;;;5.28;4.28;;;2.70;99.90;;;;;;4994843;28;20604;-79
2021/01/27 06:34:15;;;;;;;13.13;4.88;;;2.70;99.90;;;;;;5006823;28;20205;-79
2021/01/27 06:37:21;;;;;;;5.57;4.93;;;2.70;99.90;;;;;;5029136;28;20209;-79
2021/01/27 06:40:00;;;;;;;5.93;5.25;;;2.80;99.90;;;;;;5013496;28;20204;-77
2021/01/27 06:42:35;;;;;;;6.40;5.10;;;2.50;99.90;;;;;;5003527;28;20182;-78
2021/01/27 06:45:42;;;;;;;7.38;5.78;;;2.70;99.90;;;;;;5007714;28;20573;-79
2021/01/27 06:48:15;;;;;;;5.13;4.35;;;2.60;99.90;;;;;;4978568;28;20222;-78
2021/01/27 06:50:59;;;;;;;8.10;5.70;;;2.50;99.90;;;;;;4997169;28;20229;-78
2021/01/27 06:53:41;;;;;;;7.72;5.40;;;2.40;99.90;;;;;;5013327;28;20555;-78
2021/01/27 06:56:26;;;;;;;6.65;4.85;;;2.30;99.90;;;;;;5013330;28;20185;-79
2021/01/27 06:58:52;;;;;;;9.15;6.30;;;2.50;99.90;;;;;;5015406;28;20232;-78
2021/01/27 07:01:29;;;;;;;6.20;5.60;;;2.50;99.90;;;;;;5022909;28;20189;-78
2021/01/27 07:04:13;;;;;;;8.02;6.45;;;2.50;99.90;;;;;;5010170;28;20897;-78
2021/01/27 07:06:39;;;;;;;8.20;6.22;;;2.30;99.90;;;;;;5022682;28;20623;-79
2021/01/27 07:09:10;;;;;;;11.03;6.57;;;2.40;99.90;;;;;;5019559;28;20235;-78
2021/01/27 07:12:10;;;;;;;8.88;6.72;;;2.20;99.90;;;;;;5029216;28;20506;-78
2021/01/27 07:14:52;;;;;;;7.47;6.78;;;2.40;99.90;;;;;;5002129;28;20611;-78
2021/01/27 07:17:56;;;;;;;9.18;7.30;;;2.10;99.90;;;;;;5009873;28;20530;-78
2021/01/27 07:20:31;;;;;;;11.63;7.85;;;2.50;99.90;;;;;;5021335;28;20265;-78
2021/01/27 07:23:24;;;;;;;16.42;7.72;;;2.20;99.90;;;;;;5027460;28;20196;-78
2021/01/27 07:26:04;;;;;;;10.73;7.78;;;2.50;99.90;;;;;;5015911;28;20618;-78
2021/01/27 07:29:17;;;;;;;11.90;8.80;;;2.20;99.90;;;;;;5022961;28;20212;-78
2021/01/27 07:31:46;;;;;;;9.65;7.97;;;2.20;99.90;;;;;;4985551;28;20193;-78
2021/01/27 07:34:19;;;;;;;10.48;7.10;;;1.80;99.90;;;;;;5020236;28;20189;-78
2021/01/27 07:37:01;;;;;;;9.75;8.30;;;2.30;99.90;;;;;;5015409;28;20194;-78
2021/01/27 07:39:47;;;;;;;12.82;8.05;;;2.30;99.90;;;;;;5016773;28;20209;-78
2021/01/27 07:42:30;;;;;;;10.60;8.20;;;2.20;99.90;;;;;;5016437;28;20200;-78
2021/01/27 07:45:01;;;;;;;8.80;7.88;;;2.20;99.90;;;;;;5028542;28;20189;-77
2021/01/27 07:47:46;;;;;;;10.05;8.43;;;1.80;99.90;;;;;;5020774;28;20182;-78
2021/01/27 07:50:15;;;;;;;10.05;7.93;;;2.20;99.90;;;;;;5006048;28;20190;-78
2021/01/27 07:53:11;;;;;;;12.35;8.32;;;2.10;99.90;;;;;;5009075;28;20178;-79
2021/01/27 07:55:58;;;;;;;11.90;8.73;;;2.20;99.90;;;;;;5013939;28;20200;-78
2021/01/27 07:58:48;;;;;;;11.15;8.77;;;2.30;99.90;;;;;;5018410;28;20189;-78
2021/01/27 08:01:24;;;;;;;14.95;9.27;;;2.30;99.90;;;;;;5016455;28;20178;-78
2021/01/27 08:04:03;;;;;;;10.60;8.38;;;2.30;99.90;;;;;;5019357;28;20197;-78
2021/01/27 08:06:49;;;;;;;10.40;8.23;;;2.40;99.90;;;;;;5026109;28;20580;-78
2021/01/27 08:09:34;;;;;;;13.48;8.70;;;2.10;99.90;;;;;;5040760;28;20205;-77
2021/01/27 08:12:15;;;;;;;12.10;8.80;;;2.30;99.90;;;;;;5011912;28;20189;-78
2021/01/27 08:15:09;;;;;;;11.68;8.52;;;2.10;99.90;;;;;;5030441;28;20201;-78
2021/01/27 08:17:51;;;;;;;12.18;9.13;;;2.30;99.90;;;;;;5025625;28;20198;-79
2021/01/27 08:20:24;;;;;;;14.82;9.00;;;2.10;99.90;;;;;;5024791;28;20247;-78
2021/01/27 08:22:57;;;;;;;11.57;9.43;;;2.20;99.90;;;;;;5019025;28;20661;-78
2021/01/27 08:25:48;;;;;;;11.93;9.50;;;2.10;99.90;;;;;;5025212;28;20212;-78
2021/01/27 08:28:39;;;;;;;12.90;9.30;;;2.20;99.90;;;;;;5026550;28;20321;-78
2021/01/27 08:31:12;;;;;;;15.15;9.73;;;2.30;99.90;;;;;;5020875;28;20198;-78
2021/01/27 08:33:46;;;;;;;15.63;9.25;;;2.20;99.90;;;;;;5027414;28;20280;-78
2021/01/27 08:36:17;;;;;;;13.20;9.73;;;2.40;99.90;;;;;;5024449;28;20194;-78
2021/01/27 08:39:06;;;;;;;14.80;11.35;;;2.40;99.90;;;;;;5022211;28;20186;-78
2021/01/27 08:41:58;;;;;;;19.85;10.75;;;1.90;99.90;;;;;;5008563;28;20256;-78
2021/01/27 08:44:40;;;;;;;14.52;10.23;;;2.40;99.90;;;;;;5016770;28;20200;-79
2021/01/27 08:47:08;;;;;;;15.60;11.30;;;2.40;99.90;;;;;;5022723;28;20283;-78
2021/01/27 08:49:56;;;;;;;17.13;11.80;;;2.50;99.90;;;;;;5024114;28;20316;-78
2021/01/27 08:52:33;;;;;;;15.52;11.23;;;2.40;99.90;;;;;;5026218;28;20200;-79
2021/01/27 08:55:32;;;;;;;18.75;12.95;;;2.30;99.90;;;;;;5018885;28;20177;-78
2021/01/27 08:58:25;;;;;;;16.23;12.48;;;2.40;99.90;;;;;;5016040;28;20192;-78
2021/01/27 09:00:59;;;;;;;18.42;13.30;;;2.40;99.90;;;;;;5014183;28;20651;-78
2021/01/27 09:03:44;;;;;;;17.67;12.80;;;2.40;99.90;;;;;;5008513;28;20201;-78
2021/01/27 09:06:44;;;;;;;15.30;11.95;;;2.50;99.90;;;;;;5013807;28;20185;-78
2021/01/27 09:09:38;;;;;;;22.90;12.20;;;2.50;99.90;;;;;;5013731;28;20375;-78
2021/01/27 09:12:07;;;;;;;15.10;11.40;;;2.70;99.90;;;;;;5021753;28;20177;-79
2021/01/27 09:14:34;;;;;;;16.95;11.60;;;2.60;99.90;;;;;;5003886;28;20667;-79
2021/01/27 09:17:05;;;;;;;17.75;12.75;;;2.60;99.90;;;;;;5028082;28;20196;-78
2021/01/27 09:19:36;;;;;;;18.52;12.55;;;2.60;99.90;;;;;;5024839;28;20241;-78
2021/01/27 09:22:13;;;;;;;16.17;11.70;;;2.70;99.90;;;;;;5020152;28;20667;-78
2021/01/27 09:24:48;;;;;;;17.33;11.85;;;2.60;99.90;;;;;;5018512;28;20198;-78
2021/01/27 09:27:18;;;;;;;14.50;11.75;;;2.70;99.90;;;;;;5017439;28;20196;-78
2021/01/27 09:29:45;;;;;;;15.70;11.60;;;2.90;99.90;;;;;;5025672;28;20280;-78
2021/01/27 09:32:16;;;;;;;14.95;12.15;;;2.70;99.90;;;;;;5014375;28;20194;-78
2021/01/27 09:34:45;;;;;;;13.20;10.20;;;2.80;99.90;;;;;;5023619;28;20206;-78
2021/01/27 09:37:11;;;;;;;14.82;10.50;;;2.60;99.90;;;;;;5022815;28;20224;-78
2021/01/27 09:39:48;;;;;;;13.52;10.48;;;2.80;99.90;;;;;;5015207;28;20209;-78
2021/01/27 09:42:28;;;;;;;16.90;11.65;;;3.00;99.90;;;;;;5012551;28;20198;-78
2021/01/27 09:45:15;;;;;;;18.23;12.65;;;2.90;99.90;;;;;;5014678;28;20544;-78
2021/01/27 09:47:49;;;;;;;12.20;9.70;;;3.00;99.90;;;;;;5028110;28;20204;-78
2021/01/27 09:50:17;;;;;;;11.90;9.32;;;3.00;99.90;;;;;;5023225;28;20227;-78
2021/01/27 09:52:52;;;;;;;12.23;9.48;;;2.80;99.90;;;;;;5022513;28;20197;-78
2021/01/27 09:55:21;;;;;;;13.07;8.35;;;3.10;99.90;;;;;;5008316;28;20685;-78
2021/01/27 09:57:50;;;;;;;15.23;11.10;;;3.00;99.90;;;;;;5026590;28;20654;-78
2021/01/27 10:00:36;;;;;;;11.27;9.50;;;3.20;99.90;;;;;;5025976;28;20317;-78
2021/01/27 10:03:23;;;;;;;11.13;8.27;;;3.20;99.90;;;;;;5020273;28;20181;-78
2021/01/27 10:05:56;;;;;;;10.68;7.90;;;2.90;99.90;;;;;;5014075;28;20181;-78
2021/01/27 10:08:28;;;;;;;12.27;8.20;;;2.80;99.90;;;;;;5025303;28;20209;-79
2021/01/27 10:11:28;;;;;;;12.30;8.63;;;3.10;99.90;;;;;;5024935;28;20652;-78
2021/01/27 10:14:01;;;;;;;12.25;8.48;;;3.10;99.90;;;;;;5020106;28;20193;-79
2021/01/27 10:16:27;;;;;;;8.32;6.45;;;3.40;99.90;;;;;;5024645;28;20247;-78
2021/01/27 10:19:05;;;;;;;10.32;6.97;;;3.10;99.90;;;;;;5016005;28;20236;-78
2021/01/27 10:21:41;;;;;;;10.07;6.72;;;3.10;99.90;;;;;;5018015;28;20279;-78
2021/01/27 10:24:07;;;;;;;8.98;6.50;;;3.10;99.90;;;;;;5024991;28;20590;-78
2021/01/27 10:26:40;;;;;;;15.65;8.90;;;3.20;99.90;;;;;;5020790;28;20316;-78
2021/01/27 10:29:15;;;;;;;17.48;9.00;;;3.30;99.90;;;;;;5020273;28;20206;-78
2021/01/27 10:31:43;;;;;;;9.35;6.80;;;3.20;99.90;;;;;;5026211;28;20669;-78
2021/01/27 10:34:09;;;;;;;8.63;6.60;;;3.20;99.90;;;;;;5021634;28;20277;-78
2021/01/27 10:36:38;;;;;;;7.72;6.57;;;2.80;99.90;;;;;;5020340;28;20289;-78
2021/01/27 10:39:13;;;;;;;7.80;6.53;;;3.20;99.90;;;;;;5009596;28;20215;-78
2021/01/27 10:41:42;;;;;;;9.50;6.10;;;3.30;99.90;;;;;;5026255;28;20213;-78
2021/01/27 10:44:39;;;;;;;7.22;5.78;;;3.50;99.90;;;;;;5020500;28;20208;-78
2021/01/27 10:47:10;;;;;;;7.97;5.45;;;3.60;99.90;;;;;;5021993;28;20193;-78
2021/01/27 10:49:41;;;;;;;8.80;6.55;;;3.40;99.90;;;;;;5019677;28;20213;-77
2021/01/27 10:52:21;;;;;;;6.90;5.68;;;3.40;99.90;;;;;;5019592;28;20641;-77
2021/01/27 10:54:56;;;;;;;8.40;6.50;;;3.60;99.90;;;;;;5013864;28;20243;-78
2021/01/27 10:57:25;;;;;;;7.20;5.85;;;3.50;99.90;;;;;;5020260;28;20208;-78
2021/01/27 10:59:55;;;;;;;10.38;6.60;;;3.70;99.90;;;;;;5016494;28;20193;-78
2021/01/27 11:02:21;;;;;;;9.50;6.45;;;3.50;99.90;;;;;;5013376;28;20300;-79
2021/01/27 11:04:50;;;;;;;8.13;6.03;;;3.60;99.90;;;;;;5009646;28;20594;-78
2021/01/27 11:07:18;;;;;;;9.43;6.25;;;3.60;99.90;;;;;;5009373;28;20215;-79
2021/01/27 11:09:47;;;;;;;8.00;6.57;;;3.50;99.90;;;;;;5020840;28;20209;-78
2021/01/27 11:12:13;;;;;;;11.18;6.55;;;3.50;99.90;;;;;;5016983;28;20189;-79
2021/01/27 11:14:41;;;;;;;8.53;6.20;;;3.60;99.90;;;;;;5013421;28;20243;-78
2021/01/27 11:17:12;;;;;;;7.80;6.07;;;3.70;99.90;;;;;;5010216;28;20483;-78
2021/01/27 11:19:38;;;;;;;8.63;6.97;;;3.70;99.90;;;;;;5007306;28;20237;-78
2021/01/27 11:22:06;;;;;;;12.55;8.52;;;3.40;99.90;;;;;;5007602;28;20780;-78
2021/01/27 11:24:32;;;;;;;9.33;7.30;;;3.60;99.90;;;;;;5010419;28;20229;-78
2021/01/27 11:27:03;;;;;;;12.55;8.90;;;3.90;99.90;;;;;;5018180;28;20429;-79
2021/01/27 11:29:29;;;;;;;7.10;6.30;;;3.60;99.90;;;;;;5027631;28;20725;-78
2021/01/27 11:31:55;;;;;;;9.85;7.35;;;3.70;99.90;;;;;;5014460;28;20552;-79
2021/01/27 11:34:23;;;;;;;10.27;7.20;;;3.70;99.90;;;;;;5021108;28;20178;-78
2021/01/27 11:36:49;;;;;;;11.60;6.73;;;3.80;99.90;;;;;;5010037;28;20244;-78
2021/01/27 11:39:18;;;;;;;13.83;7.97;;;3.80;99.90;;;;;;5014366;28;20433;-78
2021/01/27 11:41:44;;;;;;;9.88;7.05;;;4.10;99.90;;;;;;5018175;28;20506;-78
2021/01/27 11:44:10;;;;;;;8.83;6.50;;;3.80;99.90;;;;;;5023642;28;20190;-78
2021/01/27 11:46:36;;;;;;;8.60;7.70;;;3.90;99.90;;;;;;5017796;28;20902;-78
2021/01/27 11:49:07;;;;;;;18.60;7.30;;;3.50;99.90;;;;;;5015945;28;20210;-79
2021/01/27 11:51:33;;;;;;;7.22;5.85;;;4.00;99.90;;;;;;5022740;28;20181;-79
2021/01/27 11:53:59;;;;;;;8.32;6.45;;;4.30;99.90;;;;;;5036468;28;20590;-78
2021/01/27 11:56:27;;;;;;;6.00;5.40;;;4.10;99.90;;;;;;5018657;28;20201;-78
2021/01/27 11:58:57;;;;;;;6.68;5.97;;;4.20;99.90;;;;;;5024124;28;20464;-78
2021/01/27 12:01:27;;;;;;;6.28;5.13;;;4.10;99.90;;;;;;5018970;28;20589;-78
2021/01/27 12:03:54;;;;;;;7.90;4.97;;;4.10;99.90;;;;;;5026861;28;20721;-79
2021/01/27 12:06:20;;;;;;;5.78;5.03;;;4.20;99.90;;;;;;5024386;28;20201;-78
2021/01/27 12:08:49;;;;;;;8.10;6.05;;;4.20;99.90;;;;;;5015070;28;20232;-78
2021/01/27 12:11:17;;;;;;;8.45;4.80;;;4.30;99.90;;;;;;5015347;28;20197;-79
2021/01/27 12:13:48;;;;;;;6.15;4.95;;;4.30;99.90;;;;;;5007201;28;20196;-79
2021/01/27 12:16:15;;;;;;;5.78;4.80;;;4.30;99.90;;;;;;5025205;28;20262;-77
2021/01/27 12:18:42;;;;;;;8.50;5.32;;;4.20;99.90;;;;;;5019924;28;20225;-78
2021/01/27 12:21:13;;;;;;;6.65;5.22;;;4.30;99.90;;;;;;5029266;28;20204;-79
2021/01/27 12:23:47;;;;;;;10.60;6.90;;;4.50;99.90;;;;;;5013540;28;20193;-79
2021/01/27 12:26:13;;;;;;;9.73;8.00;;;4.30;99.90;;;;;;5020675;28;20875;-78
2021/01/27 12:28:39;;;;;;;8.48;6.15;;;4.20;99.90;;;;;;4997680;28;20312;-78
2021/01/27 12:31:05;;;;;;;9.40;5.90;;;4.30;99.90;;;;;;5017405;28;20225;-78
2021/01/27 12:33:33;;;;;;;8.70;5.27;;;4.30;99.90;;;;;;5017972;28;20224;-79
2021/01/27 12:35:59;;;;;;;6.63;5.82;;;4.30;99.90;;;;;;5017055;28;20512;-78
2021/01/27 12:38:27;;;;;;;6.10;5.33;;;4.40;99.90;;;;;;5021804;28;20300;-78
2021/01/27 12:40:53;;;;;;;13.13;6.15;;;4.50;99.90;;;;;;5010357;28;20917;-78
2021/01/27 12:43:20;;;;;;;6.68;6.00;;;4.50;99.90;;;;;;5014327;28;20277;-78
2021/01/27 12:45:48;;;;;;;8.73;7.85;;;4.40;99.90;;;;;;5015415;28;20280;-78
2021/01/27 12:48:19;;;;;;;14.05;11.48;;;4.40;99.90;;;;;;5014946;28;20213;-78
2021/01/27 12:50:45;;;;;;;7.93;6.95;;;4.50;99.90;;;;;;5029947;28;20220;-78
2021/01/27 12:53:31;;;;;;;9.20;7.53;;;4.60;99.90;;;;;;4999625;28;20226;-79
2021/01/27 12:55:59;;;;;;;9.95;7.43;;;4.10;99.90;;;;;;5006480;28;20657;-79
2021/01/27 12:58:34;;;;;;;11.60;8.85;;;4.50;99.90;;;;;;5012354;28;20190;-78
2021/01/27 13:01:03;;;;;;;10.50;7.20;;;4.50;99.90;;;;;;5007234;28;20189;-78
2021/01/27 13:03:29;;;;;;;8.80;7.18;;;4.50;99.90;;;;;;5004777;28;20206;-78
2021/01/27 13:05:55;;;;;;;8.52;7.55;;;4.60;99.90;;;;;;5018704;28;20642;-79
2021/01/27 13:08:22;;;;;;;8.35;7.55;;;4.60;99.90;;;;;;5015701;28;20523;-79
2021/01/27 13:10:48;;;;;;;10.73;9.43;;;4.60;99.90;;;;;;5018760;28;20637;-79
2021/01/27 13:13:15;;;;;;;11.82;9.10;;;4.60;99.90;;;;;;5013575;28;20241;-78
2021/01/27 13:15:42;;;;;;;12.27;7.93;;;4.50;99.90;;;;;;5015150;28;20189;-78
2021/01/27 13:18:12;;;;;;;10.60;8.57;;;4.30;99.90;;;;;;5020760;28;20244;-79
2021/01/27 13:20:39;;;;;;;9.23;8.23;;;4.60;99.90;;;;;;5025867;28;20217;-78
2021/01/27 13:23:07;;;;;;;10.30;7.68;;;4.70;99.90;;;;;;5024341;28;20193;-78
2021/01/27 13:25:37;;;;;;;10.10;8.00;;;4.20;99.90;;;;;;5026066;28;20580;-78
2021/01/27 13:28:05;;;;;;;10.10;8.40;;;4.70;99.90;;;;;;5022779;28;20623;-78
2021/01/27 13:30:33;;;;;;;8.63;7.38;;;4.70;99.90;;;;;;5008483;28;20237;-79
2021/01/27 13:33:00;;;;;;;12.07;9.00;;;4.70;99.90;;;;;;5018500;28;20206;-79
2021/01/27 13:35:29;;;;;;;11.75;8.63;;;4.70;99.90;;;;;;5017047;28;20192;-78